Time;durP1;ratioP1;P1;durP2;ratioP2;P2;SDS_P1;SDS_P2;PMS_P1;PMS_P2;Temp;Humidity;BMP_temperature;BMP_pressure;BME280_temperature;BME280_humidity;BME280_pressure;Samples;Min_cycle;Max_cycle;Signal;HPM_P1;HPM_P2
2023/01/07 00:01:41;;;;;;;3.92;1.45;;;;;;;8.31;62.83;100527.91;4452721;32;33591;-87
2023/01/07 00:04:13;;;;;;;2.75;1.98;;;;;;;8.38;62.52;100526.88;4461972;32;33429;-87
2023/01/07 00:06:48;;;;;;;1.80;1.70;;;;;;;8.38;62.37;100526.03;4452272;32;30999;-87
2023/01/07 00:09:22;;;;;;;2.28;1.83;;;;;;;8.37;62.34;100525.16;4450569;32;33968;-87
2023/01/07 00:11:50;;;;;;;4.85;1.17;;;;;;;8.25;62.90;100521.91;4450990;32;33654;-87
2023/01/07 00:14:20;;;;;;;1.67;1.55;;;;;;;8.24;62.93;100530.69;4455321;32;32680;-89
2023/01/07 00:16:48;;;;;;;1.12;1.02;;;;;;;8.29;62.87;100528.81;4456757;32;162014;-88
2023/01/07 00:19:17;;;;;;;3.47;2.08;;;;;;;8.29;63.02;100524.44;4465276;32;33231;-88
2023/01/07 00:21:47;;;;;;;2.08;1.95;;;;;;;8.37;62.80;100533.06;4438094;32;34134;-88
2023/01/07 00:24:14;;;;;;;1.65;1.10;;;;;;;8.25;63.15;100533.28;4456054;32;34756;-88
2023/01/07 00:26:45;;;;;;;0.65;0.65;;;;;;;7.91;64.41;100536.66;4457175;32;31565;-88
2023/01/07 00:29:13;;;;;;;2.53;1.62;;;;;;;8.17;64.23;100535.25;4454431;32;33938;-88
2023/01/07 00:31:41;;;;;;;0.70;0.65;;;;;;;8.18;64.29;100542.22;4453594;32;35191;-88
2023/01/07 00:34:10;;;;;;;4.03;2.40;;;;;;;8.30;64.07;100541.06;4464671;31;33204;-88
2023/01/07 00:36:40;;;;;;;0.80;0.77;;;;;;;8.36;64.19;100544.50;4471385;31;32665;-87
2023/01/07 00:39:18;;;;;;;0.65;0.62;;;;;;;8.43;64.18;100542.56;4486375;31;33185;-87
2023/01/07 00:44:41;;;;;;;2.12;2.00;;;;;;;8.16;66.19;100539.63;4440262;32;32248;-88
2023/01/07 00:47:09;;;;;;;0.65;0.62;;;;;;;8.08;66.69;100540.72;4454644;32;32442;-88
2023/01/07 00:49:36;;;;;;;0.60;0.60;;;;;;;8.29;66.11;100541.97;4467320;32;32362;-87
2023/01/07 00:52:07;;;;;;;0.45;0.45;;;;;;;8.41;66.07;100534.72;4457212;32;33558;-87
2023/01/07 00:54:37;;;;;;;1.52;1.42;;;;;;;8.66;64.96;100544.66;4456323;32;33645;-87
2023/01/07 00:57:05;;;;;;;1.20;1.10;;;;;;;8.66;64.50;100545.53;4456077;32;32846;-87
2023/01/07 00:59:33;;;;;;;1.98;1.87;;;;;;;8.68;64.40;100542.84;4468955;32;32364;-88
2023/01/07 01:02:01;;;;;;;0.95;0.95;;;;;;;8.59;64.96;100543.97;4456220;32;33316;-88
2023/01/07 01:04:31;;;;;;;2.85;2.08;;;;;;;8.56;65.17;100545.78;4457682;32;32920;-88
2023/01/07 01:06:58;;;;;;;0.75;0.75;;;;;;;8.69;64.83;100536.72;4458069;32;33775;-87
2023/01/07 01:09:26;;;;;;;1.40;0.77;;;;;;;8.71;64.95;100545.41;4445561;32;32370;-88
2023/01/07 01:11:54;;;;;;;2.15;1.67;;;;;;;8.57;65.25;100542.25;4446443;32;33839;-88
2023/01/07 01:14:21;;;;;;;0.30;0.30;;;;;;;8.55;65.53;100541.44;4457708;32;32588;-87
2023/01/07 01:16:50;;;;;;;5.60;2.22;;;;;;;8.77;64.86;100537.38;4457564;32;33695;-87
2023/01/07 01:19:18;;;;;;;0.80;0.80;;;;;;;9.11;63.18;100536.50;4457952;32;32424;-87
2023/01/07 01:21:46;;;;;;;1.35;1.25;;;;;;;8.76;64.47;100538.28;4450150;32;32716;-88
2023/01/07 01:24:14;;;;;;;1.37;1.00;;;;;;;8.66;64.75;100542.91;4456293;32;34305;-87
2023/01/07 01:26:42;;;;;;;2.87;2.65;;;;;;;8.71;64.81;100542.78;4458094;32;33452;-88
2023/01/07 01:29:15;;;;;;;0.93;0.93;;;;;;;8.69;64.75;100540.19;4458337;32;32709;-88
2023/01/07 01:31:44;;;;;;;1.42;1.37;;;;;;;8.72;64.76;100539.25;4458172;32;34754;-88
2023/01/07 01:34:13;;;;;;;0.93;0.80;;;;;;;8.75;64.69;100540.94;4458059;32;33306;-90
2023/01/07 01:36:42;;;;;;;1.25;1.00;;;;;;;8.70;64.54;100531.41;4444345;32;32333;-87
2023/01/07 01:39:11;;;;;;;0.77;0.77;;;;;;;8.73;64.75;100530.44;4458239;32;34027;-88
2023/01/07 01:41:46;;;;;;;1.95;1.75;;;;;;;8.98;63.61;100526.31;4458945;32;34836;-88
2023/01/07 01:44:33;;;;;;;1.48;0.57;;;;;;;8.77;63.75;100523.34;4457762;32;34164;-88
2023/01/07 01:47:16;;;;;;;0.52;0.50;;;;;;;8.85;63.52;100530.16;4483234;32;34131;-89
2023/01/07 01:49:49;;;;;;;4.12;2.67;;;;;;;8.85;62.90;100527.50;4444658;32;33653;-88
2023/01/07 01:52:24;;;;;;;3.58;1.70;;;;;;;8.51;64.09;100523.97;4445430;32;33101;-88
2023/01/07 01:54:55;;;;;;;6.55;1.85;;;;;;;8.44;64.24;100516.22;4458614;32;33810;-88
2023/01/07 01:57:24;;;;;;;1.92;1.20;;;;;;;8.47;64.01;100512.66;4457832;32;33047;-88
2023/01/07 01:59:54;;;;;;;1.35;1.25;;;;;;;8.36;64.25;100512.03;4470007;32;33810;-88
2023/01/07 02:02:34;;;;;;;0.55;0.55;;;;;;;8.20;64.12;100508.84;4457423;32;34418;-87
2023/01/07 02:05:02;;;;;;;0.85;0.50;;;;;;;8.19;64.40;100517.66;4464157;32;32473;-87
2023/01/07 02:07:30;;;;;;;1.15;1.05;;;;;;;8.33;64.18;100505.03;4443673;32;32614;-87
2023/01/07 02:10:01;;;;;;;0.82;0.82;;;;;;;8.08;64.51;100504.75;4458034;32;34226;-87
2023/01/07 02:12:32;;;;;;;1.55;1.45;;;;;;;8.14;64.25;100509.00;4461578;32;33739;-87
2023/01/07 02:15:08;;;;;;;4.15;1.30;;;;;;;8.20;64.08;100506.22;4463350;32;32604;-87
2023/01/07 02:18:14;;;;;;;9.35;1.52;;;;;;;8.24;63.92;100509.66;4456707;32;33164;-87
2023/01/07 02:21:11;;;;;;;6.03;1.85;;;;;;;8.24;63.34;100502.63;4456727;32;33085;-87
2023/01/07 02:23:48;;;;;;;0.93;0.93;;;;;;;8.19;63.42;100494.84;4484655;32;34708;-87
2023/01/07 02:26:44;;;;;;;1.85;1.73;;;;;;;8.10;64.00;100496.81;4456774;32;33152;-88
2023/01/07 02:29:39;;;;;;;0.85;0.85;;;;;;;7.94;64.15;100491.91;4470230;32;32348;-89
2023/01/07 02:32:20;;;;;;;0.22;0.22;;;;;;;8.14;64.01;100488.81;4457039;32;34296;-88
2023/01/07 02:35:30;;;;;;;1.02;1.00;;;;;;;8.07;64.24;100491.59;4483218;32;34001;-88
2023/01/07 02:38:05;;;;;;;0.95;0.95;;;;;;;8.00;63.86;100500.53;4469986;32;33780;-88
2023/01/07 02:40:47;;;;;;;0.73;0.73;;;;;;;7.99;63.84;100486.53;4457187;32;33959;-88
2023/01/07 02:43:18;;;;;;;0.65;0.65;;;;;;;7.99;63.75;100493.56;4455319;32;34572;-88
2023/01/07 02:45:59;;;;;;;1.12;1.12;;;;;;;7.90;63.71;100507.78;4471446;31;33340;-89
2023/01/07 02:48:27;;;;;;;1.55;1.45;;;;;;;7.78;64.05;100500.12;4470188;32;33825;-88
2023/01/07 02:50:55;;;;;;;1.55;1.45;;;;;;;7.91;63.73;100502.47;4457736;32;34074;-88
2023/01/07 02:53:22;;;;;;;0.15;0.15;;;;;;;7.88;63.69;100497.28;4457552;32;33516;-87
2023/01/07 02:56:48;;;;;;;0.90;0.90;;;;;;;7.90;63.51;100489.38;4456176;32;33063;-87
2023/01/07 03:00:10;;;;;;;3.35;2.17;;;;;;;7.90;63.35;100495.50;4395614;32;32380;-88
2023/01/07 03:03:05;;;;;;;6.55;2.60;;;;;;;7.76;63.25;100492.28;4374594;32;32895;-88
2023/01/07 03:06:05;;;;;;;0.82;0.82;;;;;;;7.75;63.06;100493.19;4459437;32;33425;-88
2023/01/07 03:09:15;;;;;;;0.00;0.00;;;;;;;7.68;63.18;100488.94;4453182;32;32380;-88
2023/01/07 03:12:04;;;;;;;0.50;0.50;;;;;;;7.41;63.73;100493.88;4478997;31;34071;-86
2023/01/07 03:14:35;;;;;;;0.55;0.55;;;;;;;7.43;63.75;100488.59;4478281;31;32980;-87
2023/01/07 03:17:05;;;;;;;0.50;0.50;;;;;;;7.40;63.28;100486.00;4463933;31;32439;-87
2023/01/07 03:19:35;;;;;;;1.30;1.20;;;;;;;7.38;63.52;100488.69;4469763;31;32808;-87
2023/01/07 03:22:07;;;;;;;1.37;1.00;;;;;;;7.23;63.92;100486.34;4479056;31;33215;-87
2023/01/07 03:24:37;;;;;;;1.60;1.50;;;;;;;7.41;63.54;100486.00;4477289;31;33283;-87
2023/01/07 03:27:08;;;;;;;0.10;0.10;;;;;;;7.28;63.60;100486.25;4467191;31;35863;-89
2023/01/07 03:29:37;;;;;;;2.80;1.73;;;;;;;7.18;64.15;100488.19;4478348;31;34021;-87
2023/01/07 03:32:36;;;;;;;0.68;0.68;;;;;;;7.09;63.95;100488.37;4463103;32;34149;-87
2023/01/07 03:35:04;;;;;;;3.92;1.02;;;;;;;7.02;64.86;100492.00;4468733;32;32831;-86
2023/01/07 03:37:33;;;;;;;1.20;0.30;;;;;;;6.85;65.27;100493.16;4469499;32;33940;-87
2023/01/07 03:40:05;;;;;;;0.70;0.70;;;;;;;6.89;65.01;100491.37;4431552;32;32742;-87
2023/01/07 03:42:38;;;;;;;0.93;0.93;;;;;;;6.87;65.31;100477.37;4463281;32;33921;-87
2023/01/07 03:45:21;;;;;;;1.27;1.23;;;;;;;6.81;65.38;100488.84;4469358;32;32679;-87
2023/01/07 03:47:51;;;;;;;;;;;;;;;6.65;67.04;100487.41;4444327;32;33174;-87
2023/01/07 03:50:22;;;;;;;;;;;;;;;6.85;65.94;100482.66;4457630;32;32468;-86
2023/01/07 03:52:54;;;;;;;2.53;1.35;;;;;;;6.75;66.67;100483.72;4468993;32;33194;-87
2023/01/07 03:55:23;;;;;;;3.05;2.08;;;;;;;6.77;66.74;100484.56;4469927;32;33317;-87
2023/01/07 03:57:56;;;;;;;1.95;1.77;;;;;;;7.06;65.73;100481.41;4457077;32;33923;-87
2023/01/07 04:00:24;;;;;;;0.68;0.68;;;;;;;7.03;65.67;100484.09;4456763;32;33902;-87
2023/01/07 04:02:53;;;;;;;1.23;1.23;;;;;;;7.12;65.37;100485.66;4469310;32;33383;-87
2023/01/07 04:05:21;;;;;;;0.25;0.25;;;;;;;7.08;65.03;100492.75;4469461;32;33511;-87
2023/01/07 04:07:53;;;;;;;;;;;;;;;6.95;64.96;100485.13;4445798;32;34534;-88
2023/01/07 04:10:21;;;;;;;1.37;1.27;;;;;;;7.00;64.68;100485.91;4445548;32;33570;-88
2023/01/07 04:12:50;;;;;;;1.75;1.17;;;;;;;7.01;64.66;100485.88;4468370;32;32067;-87
2023/01/07 04:15:18;;;;;;;2.60;1.40;;;;;;;6.95;64.97;100485.13;4457530;32;33340;-87
2023/01/07 04:17:46;;;;;;;1.15;1.12;;;;;;;6.90;64.71;100478.19;4456664;32;32737;-88
2023/01/07 04:20:14;;;;;;;0.55;0.55;;;;;;;6.86;64.78;100488.78;4468793;32;35146;-87
2023/01/07 04:22:43;;;;;;;0.90;0.90;;;;;;;6.73;65.17;100482.88;4466417;32;33792;-87
2023/01/07 04:25:13;;;;;;;0.55;0.55;;;;;;;6.76;65.20;100480.19;4448585;32;31547;-86
2023/01/07 04:27:41;;;;;;;1.35;1.25;;;;;;;6.55;65.56;100491.03;4428603;32;32706;-86
2023/01/07 04:30:10;;;;;;;1.75;1.08;;;;;;;6.81;65.16;100488.84;4446703;32;34021;-87
2023/01/07 04:32:38;;;;;;;1.17;1.08;;;;;;;6.72;65.11;100494.25;4442893;32;33296;-87
2023/01/07 04:35:07;;;;;;;1.77;1.67;;;;;;;6.96;64.27;100494.72;4433537;32;32369;-87
2023/01/07 04:37:35;;;;;;;0.47;0.47;;;;;;;6.81;64.33;100488.00;4427179;32;33253;-88
2023/01/07 04:40:04;;;;;;;0.93;0.93;;;;;;;6.68;64.70;100497.81;4444691;32;33621;-88
2023/01/07 04:42:32;;;;;;;0.93;0.75;;;;;;;6.54;65.53;100489.31;4442065;32;31940;-88
2023/01/07 04:45:00;;;;;;;1.12;1.02;;;;;;;6.53;65.82;100492.84;4433010;32;32971;-88
2023/01/07 04:47:29;;;;;;;0.43;0.43;;;;;;;6.64;65.55;100493.50;4457256;32;34630;-89
2023/01/07 04:49:56;;;;;;;0.50;0.50;;;;;;;6.78;64.92;100491.53;4453497;32;32352;-87
2023/01/07 04:52:27;;;;;;;0.73;0.73;;;;;;;6.70;65.14;100490.81;4441695;32;34628;-86
2023/01/07 04:54:59;;;;;;;0.47;0.40;;;;;;;6.68;65.19;100487.31;4447710;32;32157;-87
2023/01/07 04:57:27;;;;;;;0.95;0.85;;;;;;;6.57;65.69;100494.53;4447048;32;32349;-88
2023/01/07 04:59:55;;;;;;;0.57;0.57;;;;;;;6.62;65.43;100492.69;4447130;32;33783;-87
2023/01/07 05:02:23;;;;;;;2.00;1.45;;;;;;;6.62;65.19;100496.19;4443886;32;35082;-88
2023/01/07 05:04:51;;;;;;;0.15;0.15;;;;;;;6.77;65.10;100497.66;4433694;32;32547;-87
2023/01/07 05:07:21;;;;;;;0.55;0.43;;;;;;;6.79;64.90;100495.91;4457199;32;33572;-88
2023/01/07 05:09:50;;;;;;;0.55;0.55;;;;;;;6.46;66.00;100501.69;4446611;32;33821;-88
2023/01/07 05:12:19;;;;;;;1.08;1.00;;;;;;;6.31;66.83;100492.28;4433644;32;33626;-87
2023/01/07 05:14:47;;;;;;;1.40;1.30;;;;;;;6.46;66.15;100496.44;4435476;32;32937;-87
2023/01/07 05:17:15;;;;;;;2.25;2.10;;;;;;;6.61;65.53;100511.94;4434286;32;32893;-87
2023/01/07 05:19:44;;;;;;;0.55;0.55;;;;;;;6.54;65.41;100500.66;4458955;32;34404;-87
2023/01/07 05:22:15;;;;;;;5.37;2.37;;;;;;;6.67;65.14;100506.59;4447250;32;32936;-87
2023/01/07 05:24:44;;;;;;;4.95;2.65;;;;;;;6.71;64.88;100504.78;4460200;32;33284;-87
2023/01/07 05:27:12;;;;;;;0.82;0.82;;;;;;;6.64;64.43;100501.37;4437553;32;35289;-87
2023/01/07 05:29:42;;;;;;;4.60;3.53;;;;;;;6.72;64.21;100503.91;4458264;32;32410;-86
2023/01/07 05:32:12;;;;;;;2.10;1.02;;;;;;;6.75;64.08;100509.09;4449639;32;33458;-87
2023/01/07 05:34:40;;;;;;;1.25;1.25;;;;;;;6.68;64.05;100509.19;4435104;32;33432;-88
2023/01/07 05:37:08;;;;;;;8.77;2.83;;;;;;;6.75;63.86;100509.97;4447078;32;32570;-88
2023/01/07 05:39:37;;;;;;;1.60;1.50;;;;;;;6.70;63.78;100514.44;4430632;32;34106;-89
2023/01/07 05:42:05;;;;;;;0.37;0.37;;;;;;;6.53;64.16;100519.06;4446849;32;34069;-89
2023/01/07 05:44:33;;;;;;;0.85;0.82;;;;;;;6.62;63.77;100518.94;4449541;32;33589;-89
2023/01/07 05:47:02;;;;;;;0.65;0.65;;;;;;;6.70;63.51;100516.19;4447641;32;32905;-89
2023/01/07 05:49:30;;;;;;;0.45;0.45;;;;;;;6.59;63.73;100511.97;4447618;32;31222;-86
2023/01/07 05:51:57;;;;;;;0.73;0.73;;;;;;;6.59;63.44;100516.34;4450840;32;33470;-86
2023/01/07 05:54:26;;;;;;;0.73;0.70;;;;;;;6.45;63.76;100516.56;4463008;32;32899;-87
2023/01/07 05:57:02;;;;;;;0.73;0.73;;;;;;;6.28;64.36;100516.81;4462000;32;34893;-88
2023/01/07 05:59:33;;;;;;;1.00;1.00;;;;;;;6.21;64.52;100512.53;4449612;32;33336;-88
2023/01/07 06:02:02;;;;;;;0.60;0.25;;;;;;;6.41;64.08;100517.53;4437183;32;33257;-86
2023/01/07 06:04:33;;;;;;;0.52;0.52;;;;;;;6.51;63.88;100520.88;4450701;32;32866;-85
2023/01/07 06:07:02;;;;;;;0.30;0.30;;;;;;;6.53;63.62;100512.06;4450308;32;34211;-84
2023/01/07 06:09:30;;;;;;;0.82;0.82;;;;;;;6.45;63.53;100516.56;4450085;32;32556;-84
2023/01/07 06:11:58;;;;;;;1.17;0.80;;;;;;;6.25;64.13;100514.25;4461289;32;32900;-84
2023/01/07 06:14:28;;;;;;;8.05;4.40;;;;;;;6.29;63.59;100517.69;4462304;32;32989;-85
2023/01/07 06:16:59;;;;;;;0.80;0.80;;;;;;;6.41;63.21;100509.66;4447749;32;33626;-84
2023/01/07 06:19:28;;;;;;;0.40;0.40;;;;;;;6.12;63.70;100512.66;4459312;32;34791;-84
2023/01/07 06:21:56;;;;;;;0.95;0.77;;;;;;;6.27;63.34;100506.38;4437162;32;32741;-88
2023/01/07 06:24:24;;;;;;;1.23;1.12;;;;;;;6.20;63.55;100505.56;4451443;32;33437;-88
2023/01/07 06:26:53;;;;;;;0.88;0.70;;;;;;;6.31;63.20;100505.41;4447702;32;33430;-88
2023/01/07 06:29:23;;;;;;;1.85;1.12;;;;;;;6.63;61.67;100502.28;4435302;32;34787;-88
2023/01/07 06:31:53;;;;;;;1.10;0.50;;;;;;;6.41;62.11;100510.50;4439651;32;32418;-87
2023/01/07 06:34:25;;;;;;;0.98;0.98;;;;;;;6.24;62.20;100496.78;4433549;32;33117;-88
2023/01/07 06:36:52;;;;;;;7.80;1.40;;;;;;;5.87;63.74;100510.34;4432357;32;32725;-88
2023/01/07 06:39:23;;;;;;;1.55;1.45;;;;;;;5.72;64.24;100502.69;4436401;32;32565;-87
2023/01/07 06:41:52;;;;;;;0.93;0.93;;;;;;;5.67;64.51;100498.41;4459947;32;34650;-87
2023/01/07 06:44:20;;;;;;;3.67;1.48;;;;;;;5.73;64.50;100493.09;4430729;32;33016;-86
2023/01/07 06:46:48;;;;;;;1.33;1.33;;;;;;;5.80;64.58;100493.00;4440732;32;32812;-86
2023/01/07 06:49:28;;;;;;;2.60;1.85;;;;;;;5.87;64.27;100497.25;4458758;32;33113;-87
2023/01/07 06:51:56;;;;;;;0.13;0.13;;;;;;;5.86;64.29;100499.91;4434892;32;32070;-87
2023/01/07 06:54:25;;;;;;;0.30;0.30;;;;;;;5.96;64.02;100500.69;4438317;32;32569;-86
2023/01/07 06:56:54;;;;;;;0.80;0.80;;;;;;;5.94;64.25;100512.94;4449231;32;34217;-87
2023/01/07 06:59:27;;;;;;;1.40;1.37;;;;;;;5.77;64.86;100514.00;4436639;32;33337;-86
2023/01/07 07:01:59;;;;;;;0.20;0.20;;;;;;;5.71;64.57;100521.94;4458328;32;33726;-86
2023/01/07 07:04:30;;;;;;;1.55;1.45;;;;;;;5.65;65.01;100522.03;4448018;32;33776;-86
2023/01/07 07:07:01;;;;;;;2.20;2.00;;;;;;;5.73;64.93;100522.78;4448329;32;32784;-86
2023/01/07 07:09:29;;;;;;;0.88;0.88;;;;;;;5.84;65.20;100518.28;4441845;32;33570;-86
2023/01/07 07:12:00;;;;;;;2.53;2.33;;;;;;;5.80;66.57;100521.81;4447823;32;33272;-86
2023/01/07 07:14:28;;;;;;;2.67;2.50;;;;;;;5.94;66.20;100520.81;4444359;32;32105;-86
2023/01/07 07:16:57;;;;;;;1.08;1.08;;;;;;;6.08;66.17;100526.75;4443046;32;33169;-86
2023/01/07 07:19:27;;;;;;;0.73;0.73;;;;;;;6.16;65.79;100530.97;4446985;32;33683;-86
2023/01/07 07:21:57;;;;;;;1.65;1.58;;;;;;;6.23;65.99;100521.28;4435319;32;33818;-86
2023/01/07 07:24:26;;;;;;;1.73;1.12;;;;;;;6.60;64.39;100534.72;4466883;32;33292;-86
2023/01/07 07:26:56;;;;;;;1.23;1.23;;;;;;;6.29;65.61;100536.91;4442618;32;33241;-86
2023/01/07 07:31:59;;;;;;;2.70;2.50;;;;;;;6.32;67.00;100534.25;4462383;31;33250;-86
2023/01/07 07:34:31;;;;;;;1.85;1.37;;;;;;;6.65;65.84;100535.50;4464193;31;32905;-86
2023/01/07 07:37:03;;;;;;;1.98;1.83;;;;;;;6.83;65.34;100541.31;4435654;32;33656;-86
2023/01/07 07:39:32;;;;;;;3.90;1.95;;;;;;;6.61;66.13;100544.31;4456553;32;33845;-86
2023/01/07 07:42:02;;;;;;;2.05;1.92;;;;;;;6.56;66.66;100534.78;4469759;32;35848;-86
2023/01/07 07:44:35;;;;;;;1.02;1.02;;;;;;;6.46;67.85;100539.31;4444309;32;32364;-86
2023/01/07 07:47:08;;;;;;;0.98;0.90;;;;;;;6.70;68.28;100540.69;4465692;32;32230;-86
2023/01/07 07:49:39;;;;;;;1.70;1.62;;;;;;;6.72;68.64;100540.62;4469902;32;33914;-86
2023/01/07 07:52:07;;;;;;;0.65;0.60;;;;;;;6.85;69.52;100540.41;4456967;32;34452;-86
2023/01/07 07:54:37;;;;;;;2.65;2.42;;;;;;;6.82;70.33;100536.97;4468390;32;34031;-86
2023/01/07 07:57:09;;;;;;;0.17;0.17;;;;;;;7.14;70.05;100539.06;4456606;32;33802;-87
2023/01/07 07:59:47;;;;;;;3.37;1.90;;;;;;;7.36;69.82;100532.53;4443462;32;33834;-86
2023/01/07 08:02:19;;;;;;;0.45;0.45;;;;;;;7.25;71.61;100538.84;4468034;32;32611;-87
2023/01/07 08:04:50;;;;;;;1.40;1.35;;;;;;;7.73;69.79;100529.16;4459467;31;33541;-86
2023/01/07 08:07:18;;;;;;;1.33;1.20;;;;;;;7.92;69.65;100527.84;4456424;32;32620;-86
2023/01/07 08:10:05;;;;;;;0.32;0.32;;;;;;;8.07;69.90;100528.44;4470181;32;34036;-86
2023/01/07 08:12:37;;;;;;;0.80;0.68;;;;;;;7.95;70.98;100535.69;4444855;31;33418;-87
2023/01/07 08:15:08;;;;;;;1.50;0.77;;;;;;;8.10;71.35;100534.50;4455503;32;34417;-88
2023/01/07 08:17:43;;;;;;;1.55;1.30;;;;;;;8.32;70.67;100531.41;4467660;32;33804;-88
2023/01/07 08:20:12;;;;;;;1.70;1.58;;;;;;;8.56;70.54;100522.09;4442429;32;32863;-88
2023/01/07 08:22:41;;;;;;;0.73;0.73;;;;;;;8.75;69.90;100527.78;4456199;32;33598;-89
2023/01/07 08:25:14;;;;;;;1.02;0.98;;;;;;;8.84;69.62;100528.44;4454331;32;33733;-89
2023/01/07 08:27:42;;;;;;;1.08;1.02;;;;;;;8.96;69.20;100516.69;4464798;32;32513;-86
2023/01/07 08:30:11;;;;;;;0.77;0.77;;;;;;;9.14;68.79;100515.37;4453624;32;33035;-86
2023/01/07 08:32:47;;;;;;;0.90;0.90;;;;;;;9.16;68.69;100514.44;4455395;32;33918;-89
2023/01/07 08:35:22;;;;;;;1.62;1.42;;;;;;;9.22;68.65;100513.41;4465040;31;34127;-86
2023/01/07 08:37:50;;;;;;;2.20;2.10;;;;;;;9.45;68.28;100518.91;4456360;32;33341;-86
2023/01/07 08:40:24;;;;;;;3.10;1.30;;;;;;;9.53;68.34;100504.63;4456346;32;33153;-86
2023/01/07 08:43:00;;;;;;;0.90;0.90;;;;;;;9.77;67.79;100503.94;4455917;32;33868;-86
2023/01/07 08:45:34;;;;;;;1.55;1.50;;;;;;;9.95;67.65;100506.03;4446877;32;33746;-86
2023/01/07 08:48:04;;;;;;;1.98;1.87;;;;;;;9.81;67.79;100513.47;4443072;32;32721;-86
2023/01/07 08:50:33;;;;;;;1.87;1.77;;;;;;;9.91;67.71;100507.03;4468378;32;32575;-86
2023/01/07 08:53:01;;;;;;;1.83;1.73;;;;;;;10.23;67.24;100505.19;4453018;32;33881;-86
2023/01/07 08:55:29;;;;;;;4.15;1.40;;;;;;;10.46;66.95;100502.72;4469253;32;32394;-86
2023/01/07 08:57:58;;;;;;;0.90;0.90;;;;;;;10.75;66.12;100493.00;4455254;32;33670;-87
2023/01/07 09:00:33;;;;;;;2.05;1.37;;;;;;;10.87;65.76;100495.25;4482110;32;34532;-86
2023/01/07 09:03:13;;;;;;;1.58;1.23;;;;;;;11.11;65.22;100490.00;4458305;32;34822;-86
2023/01/07 09:08:30;;;;;;;0.80;0.80;;;;;;;11.21;64.90;100497.56;4457087;32;33730;-87
2023/01/07 09:10:59;;;;;;;9.40;2.55;;;;;;;11.61;63.85;100487.34;4456148;32;34089;-86
2023/01/07 09:13:32;;;;;;;1.48;1.08;;;;;;;11.88;62.52;100491.63;4443111;32;32529;-87
2023/01/07 09:16:00;;;;;;;0.80;0.80;;;;;;;11.72;62.86;100487.78;4455332;32;32715;-87
2023/01/07 09:18:28;;;;;;;0.40;0.40;;;;;;;11.90;61.80;100481.84;4442992;32;32853;-87
2023/01/07 09:21:19;;;;;;;3.83;2.10;;;;;;;12.21;61.11;100480.66;4445369;32;33930;-86
2023/01/07 09:23:53;;;;;;;1.70;1.58;;;;;;;12.33;61.25;100479.28;4466078;32;34298;-87
2023/01/07 09:26:26;;;;;;;0.55;0.55;;;;;;;12.40;60.16;100480.78;4454774;32;32064;-87
2023/01/07 09:28:54;;;;;;;2.50;0.73;;;;;;;12.83;59.02;100477.22;4455823;32;32492;-87
2023/01/07 09:31:22;;;;;;;1.20;1.17;;;;;;;13.25;57.42;100484.31;4450199;32;34076;-87
2023/01/07 09:33:54;;;;;;;0.00;0.00;;;;;;;12.91;58.22;100475.09;4458938;32;33013;-87
2023/01/07 09:36:23;;;;;;;3.92;2.30;;;;;;;13.05;58.25;100469.19;4462498;32;32126;-90
2023/01/07 09:38:59;;;;;;;2.72;0.47;;;;;;;13.26;57.76;100462.16;4454739;32;33491;-90
2023/01/07 09:41:41;;;;;;;1.05;0.95;;;;;;;13.60;56.39;100461.50;4428903;32;33026;-90
2023/01/07 09:44:32;;;;;;;1.40;1.00;;;;;;;13.79;55.71;100451.75;4454922;32;33384;-90
2023/01/07 09:47:02;;;;;;;2.37;1.08;;;;;;;13.56;56.64;100450.16;4465593;32;33234;-90
2023/01/07 09:49:34;;;;;;;0.82;0.82;;;;;;;13.47;57.07;100450.56;4455488;32;32689;-90
2023/01/07 09:52:13;;;;;;;1.23;1.12;;;;;;;13.62;57.87;100453.44;4458208;32;34266;-89
2023/01/07 09:54:44;;;;;;;2.08;1.00;;;;;;;13.93;56.74;100452.91;4456982;32;33492;-91
2023/01/07 09:57:15;;;;;;;0.75;0.75;;;;;;;13.86;57.48;100444.34;4456964;32;33008;-90
2023/01/07 09:59:48;;;;;;;1.50;0.80;;;;;;;14.23;55.24;100439.94;4442521;32;32875;-91
2023/01/07 10:02:38;;;;;;;0.80;0.70;;;;;;;14.55;54.25;100431.28;4452440;32;33602;-91
2023/01/07 10:05:11;;;;;;;0.70;0.68;;;;;;;14.75;53.76;100429.41;4468610;32;33161;-91
2023/01/07 10:08:08;;;;;;;2.67;1.37;;;;;;;14.90;53.17;100425.97;4456302;32;32170;-91
2023/01/07 10:11:27;;;;;;;1.87;1.67;;;;;;;14.79;54.50;100423.00;4446562;32;33142;-91
2023/01/07 10:14:27;;;;;;;1.90;1.80;;;;;;;15.27;51.82;100418.72;4454997;32;32656;-91
2023/01/07 10:17:04;;;;;;;0.43;0.43;;;;;;;15.12;52.38;100423.06;4452367;32;33976;-91
2023/01/07 10:19:42;;;;;;;0.90;0.90;;;;;;;15.25;51.46;100409.97;4451481;32;32674;-91
2023/01/07 10:22:30;;;;;;;0.30;0.30;;;;;;;15.05;52.51;100406.56;4469002;32;33783;-90
2023/01/07 10:25:04;;;;;;;2.17;1.45;;;;;;;15.23;51.70;100411.84;4448432;32;33316;-91
2023/01/07 10:27:37;;;;;;;2.22;2.12;;;;;;;14.99;53.09;100404.22;4447194;32;33100;-91
2023/01/07 10:30:15;;;;;;;1.73;1.35;;;;;;;15.24;52.08;100408.22;4462451;32;33342;-91
2023/01/07 10:32:44;;;;;;;0.80;0.80;;;;;;;15.58;50.60;100400.16;4447335;32;33839;-91
2023/01/07 10:35:20;;;;;;;2.20;1.77;;;;;;;15.50;51.11;100397.06;4440347;32;33636;-91
2023/01/07 10:37:53;;;;;;;0.50;0.50;;;;;;;15.61;51.57;100402.63;4448680;32;32657;-91
2023/01/07 10:40:50;;;;;;;1.90;1.65;;;;;;;15.87;49.91;100397.72;4444038;32;32895;-91
2023/01/07 10:43:29;;;;;;;1.85;1.15;;;;;;;15.99;49.53;100397.00;4436401;32;33012;-91
2023/01/07 10:49:16;;;;;;;1.58;0.77;;;;;;;15.58;50.71;100389.50;4452079;32;33674;-91
2023/01/07 10:54:55;;;;;;;3.42;1.25;;;;;;;15.80;50.03;100381.22;4476797;32;33643;-89
2023/01/07 10:57:25;;;;;;;0.22;0.22;;;;;;;16.04;49.62;100370.97;4450121;32;34455;-89
2023/01/07 10:59:57;;;;;;;3.40;1.00;;;;;;;16.34;48.76;100372.84;4435322;32;33524;-89
2023/01/07 11:02:28;;;;;;;1.33;1.15;;;;;;;16.24;49.28;100363.66;4433129;32;33452;-89
2023/01/07 11:04:58;;;;;;;0.93;0.93;;;;;;;16.36;48.68;100366.44;4434560;32;32951;-89
2023/01/07 11:07:43;;;;;;;1.17;1.10;;;;;;;16.26;48.97;100362.59;4443055;32;32264;-89
2023/01/07 11:10:19;;;;;;;0.62;0.62;;;;;;;16.20;49.36;100356.78;4447395;32;32700;-89
2023/01/07 11:13:23;;;;;;;1.52;1.17;;;;;;;15.71;50.49;100356.91;4445144;32;33336;-89
2023/01/07 11:16:19;;;;;;;1.45;1.35;;;;;;;15.67;52.13;100356.25;4441561;32;33380;-89
2023/01/07 11:18:57;;;;;;;1.67;1.58;;;;;;;15.75;50.87;100355.78;4448858;32;33108;-88
2023/01/07 11:21:39;;;;;;;7.10;1.50;;;;;;;15.33;51.67;100346.53;4444071;32;32989;-89
2023/01/07 11:24:33;;;;;;;1.80;1.60;;;;;;;15.41;51.20;100352.31;4443511;32;32874;-89
2023/01/07 11:27:16;;;;;;;3.30;2.85;;;;;;;14.96;52.31;100351.22;4457202;32;33533;-88
2023/01/07 11:30:06;;;;;;;10.20;2.58;;;;;;;15.21;51.56;100340.09;4435044;32;34302;-89
2023/01/07 11:32:39;;;;;;;4.57;3.30;;;;;;;14.92;52.13;100344.31;4447005;32;34542;-88
2023/01/07 11:35:14;;;;;;;2.80;2.60;;;;;;;15.23;51.82;100343.53;4434984;32;33254;-89
2023/01/07 11:37:49;;;;;;;2.90;2.67;;;;;;;14.96;52.00;100332.59;4449296;32;33565;-88
2023/01/07 11:40:24;;;;;;;3.95;3.58;;;;;;;15.36;51.23;100338.41;4447930;32;34322;-88
2023/01/07 11:42:57;;;;;;;4.50;2.62;;;;;;;15.17;51.47;100333.22;4448371;32;34274;-88
2023/01/07 11:45:49;;;;;;;2.10;1.92;;;;;;;15.31;51.29;100327.16;4454599;32;33471;-88
2023/01/07 11:48:26;;;;;;;10.25;4.30;;;;;;;15.36;51.23;100328.63;4447988;32;32418;-90
2023/01/07 11:51:00;;;;;;;4.37;3.40;;;;;;;15.26;51.56;100323.88;4440392;32;33301;-91
2023/01/07 11:53:38;;;;;;;5.60;2.35;;;;;;;15.00;52.42;100320.84;4444109;32;33198;-90
2023/01/07 11:56:21;;;;;;;1.65;1.55;;;;;;;14.86;52.74;100323.38;4446510;32;34096;-90
2023/01/07 11:59:30;;;;;;;5.40;3.67;;;;;;;14.73;53.12;100317.84;4443307;32;33605;-90
2023/01/07 12:02:25;;;;;;;7.87;2.65;;;;;;;14.98;52.39;100306.75;4429632;32;34236;-88
2023/01/07 12:05:16;;;;;;;4.10;3.53;;;;;;;14.89;52.21;100307.25;4436483;32;33681;-89
2023/01/07 12:07:48;;;;;;;3.05;2.50;;;;;;;14.88;52.88;100302.03;4462539;32;34192;-88
2023/01/07 12:10:31;;;;;;;3.15;2.12;;;;;;;15.04;52.14;100298.44;4443088;32;32738;-88
2023/01/07 12:13:17;;;;;;;3.78;3.08;;;;;;;14.89;52.34;100299.28;4458674;32;33999;-88
2023/01/07 12:16:03;;;;;;;5.80;2.60;;;;;;;14.62;52.86;100300.72;4447880;32;33917;-89
2023/01/07 12:18:58;;;;;;;2.37;1.80;;;;;;;15.01;51.81;100295.97;4446003;32;32399;-88